Airfield :
LOGIN :

Register | Disclaimer

   EN    FR    IT 

 










Legend :    VFR   Marginal VFR   IFR   Intensive IFR   Very Intensive IFR
Visi :
Ceiling :
>= 8 km
>= 3000ft
5 to 8 km
1000 to 3000 ft
1500m to 5 km
500 to 1000 ft
800 to 1500m
200 to 500 ft
< 800m
< 200 ft
Symbols :   Thunderstorms  Fog  Heavy snow  Heavy precipitations  Wind > 20 kt
SIGMETs :     Misc.  Thunderstorms  Icing  Turbulence  Mountain Waves  Volcanic Ashes






- Airport Elevation : 319 ft


EIME - Casement Air Base

CURRENT METAR :
  • 301600Z 28009KT 9999 FEW025 SCT038 BKN046 17/09 Q1011

EXPIRED METARs :
  • 301530Z 25007KT 9999 FEW029 SCT035 BKN042 16/10 Q1011
  • 301500Z 24006KT 210V280 9999 FEW025 SCT046 BKN054 16/10 Q1011
  • 301430Z 27007KT 9999 FEW030 SCT050 BKN077 16/10 Q1011
  • 301400Z 26011KT 9999 FEW025 SCT037 BKN046 15/10 Q1011
  • 301330Z 24005KT 160V270 9999 FEW024 SCT030 BKN057 16/11 Q1010

TAF TAF EIME
Valid from the 30 at 15:00 until the 01 at 00:00 UTC


301400Z 3015/3024 27008KT 9999 FEW020 BKN040
PROB30
TEMPO 3015/3017 -SHRA SCT020CB
BECMG 3022/3024 23010KT



MET'MAP, your aeronautical weather chart ! - Copyright ORBIFLY December 2007 - Disclaimer

ORBIFLY MET'MAP TEAM :

Programming & Development : Alexandra Zaïnal
Original concept : Baudouin d'Aumeries
Technical & hardware support : Manuel Goepfert
Assistance : Marc-Olivier Méhu




SOURCES & CREDITS :

   NOAA